createdAt,value
2018-11-06T00:01:07.653Z,34.03
2018-11-06T00:04:11.086Z,34.77
2018-11-06T00:07:14.145Z,36.50
2018-11-06T00:10:17.270Z,35.00
2018-11-06T00:13:20.329Z,32.63
2018-11-06T00:16:23.463Z,33.33
2018-11-06T00:19:26.515Z,34.13
2018-11-06T00:22:29.648Z,33.78
2018-11-06T00:25:32.681Z,30.90
2018-11-06T00:28:36.029Z,33.23
2018-11-06T00:31:39.085Z,32.33
2018-11-06T00:34:42.218Z,32.50
2018-11-06T00:37:45.375Z,32.00
2018-11-06T00:40:48.505Z,32.57
2018-11-06T00:43:51.558Z,37.05
2018-11-06T00:46:54.721Z,35.30
2018-11-06T00:49:57.745Z,34.93
2018-11-06T00:53:00.889Z,35.03
2018-11-06T00:56:04.046Z,33.03
2018-11-06T00:59:07.319Z,32.87
2018-11-06T01:02:10.422Z,32.33
2018-11-06T01:05:14.429Z,30.68
2018-11-06T01:08:17.529Z,33.27
2018-11-06T01:11:20.782Z,31.73
2018-11-06T01:14:23.823Z,33.20
2018-11-06T01:17:27.054Z,33.70
2018-11-06T01:20:30.111Z,32.90
2018-11-06T01:23:33.230Z,32.60
2018-11-06T01:26:36.381Z,32.33
2018-11-06T01:29:39.725Z,29.72
2018-11-06T01:32:43.645Z,32.30
2018-11-06T01:35:46.733Z,32.47
2018-11-06T01:38:49.795Z,31.85
2018-11-06T01:41:52.922Z,31.07
2018-11-06T01:44:56.077Z,31.50
2018-11-06T01:47:59.205Z,32.30
2018-11-06T01:51:02.261Z,30.90
2018-11-06T01:54:05.393Z,31.40
2018-11-06T01:57:08.453Z,33.10
2018-11-06T02:00:14.686Z,30.50
2018-11-06T02:03:17.744Z,38.40
2018-11-06T02:06:20.949Z,32.73
2018-11-06T02:09:23.978Z,32.07
2018-11-06T02:12:27.124Z,34.27
2018-11-06T02:15:30.177Z,29.73
2018-11-06T02:18:33.410Z,31.10
2018-11-06T02:21:36.465Z,30.97
2018-11-06T02:24:39.761Z,27.47
2018-11-06T02:27:42.957Z,31.87
2018-11-06T02:30:46.086Z,28.90
2018-11-06T02:33:49.141Z,26.97
2018-11-06T02:36:52.277Z,26.20
2018-11-06T02:39:55.329Z,31.60
2018-11-06T02:42:58.462Z,29.53
2018-11-06T02:46:01.523Z,28.83
2018-11-06T02:49:04.940Z,27.13
2018-11-06T02:52:08.005Z,27.70
2018-11-06T02:55:11.454Z,30.97
2018-11-06T02:58:14.533Z,29.63
2018-11-06T03:01:17.629Z,28.55
2018-11-06T03:04:20.681Z,32.70
2018-11-06T03:07:24.122Z,33.50
2018-11-06T03:10:27.290Z,34.33
2018-11-06T03:13:30.310Z,32.23
2018-11-06T03:16:33.569Z,31.20
2018-11-06T03:19:36.706Z,30.50
2018-11-06T03:22:40.270Z,35.97
2018-11-06T03:25:43.393Z,34.00
2018-11-06T03:28:46.442Z,31.37
2018-11-06T03:31:49.592Z,30.83
2018-11-06T03:34:52.622Z,31.77
2018-11-06T03:37:55.869Z,33.43
2018-11-06T03:40:58.909Z,33.77
2018-11-06T03:44:02.098Z,33.67
2018-11-06T03:47:05.111Z,33.43
2018-11-06T03:50:09.817Z,33.80
2018-11-06T03:53:12.933Z,34.83
2018-11-06T03:56:16.269Z,34.97
2018-11-06T03:59:19.778Z,33.93
2018-11-06T04:02:22.866Z,32.80
2018-11-06T04:05:26.028Z,31.77
2018-11-06T04:08:29.274Z,29.33
2018-11-06T04:11:32.310Z,33.30
2018-11-06T04:14:35.805Z,34.23
2018-11-06T04:17:39.006Z,32.60
2018-11-06T04:20:42.250Z,31.53
2018-11-06T04:23:45.289Z,30.93
2018-11-06T04:26:48.674Z,31.70
2018-11-06T04:29:51.673Z,31.40
2018-11-06T04:32:54.818Z,31.97
2018-11-06T04:35:57.858Z,33.83
2018-11-06T04:39:01.046Z,36.47
2018-11-06T04:42:04.353Z,36.83
2018-11-06T04:45:08.627Z,33.00
2018-11-06T04:48:11.670Z,30.97
2018-11-06T04:51:15.069Z,30.25
2018-11-06T04:54:18.174Z,35.07
2018-11-06T04:57:21.437Z,36.50
2018-11-06T05:00:24.666Z,40.13
2018-11-06T05:03:27.902Z,37.93
2018-11-06T05:06:31.142Z,35.63
2018-11-06T05:09:34.386Z,31.13
2018-11-06T05:12:37.645Z,29.07
2018-11-06T05:15:40.897Z,29.37
2018-11-06T05:18:44.142Z,29.83
2018-11-06T05:21:47.265Z,29.53
2018-11-06T05:24:50.321Z,29.57
2018-11-06T05:27:53.558Z,31.43
2018-11-06T05:30:56.710Z,31.13
2018-11-06T05:33:59.938Z,36.97
2018-11-06T05:37:02.994Z,32.87
2018-11-06T05:40:17.299Z,33.53
2018-11-06T05:43:20.342Z,38.57
2018-11-06T05:46:23.677Z,35.67
2018-11-06T05:49:26.737Z,31.67
2018-11-06T05:52:30.685Z,37.40
2018-11-06T05:55:33.742Z,31.97
2018-11-06T05:58:37.006Z,37.67
2018-11-06T06:01:40.034Z,34.90
2018-11-06T06:04:43.669Z,36.00
2018-11-06T06:07:46.832Z,36.47
2018-11-06T06:10:50.314Z,37.10
2018-11-06T06:13:53.343Z,32.80
2018-11-06T06:16:56.692Z,34.00
2018-11-06T06:19:59.606Z,38.25
2018-11-06T06:23:02.837Z,40.03
2018-11-06T06:26:05.997Z,48.10
2018-11-06T06:29:09.426Z,41.83
2018-11-06T06:32:12.494Z,37.73
2018-11-06T06:35:15.702Z,41.10
2018-11-06T06:38:18.782Z,35.50
2018-11-06T06:41:22.017Z,43.77
2018-11-06T06:44:25.169Z,50.73
2018-11-06T06:47:28.334Z,51.47
2018-11-06T06:50:31.441Z,44.43
2018-11-06T06:53:34.690Z,44.40
2018-11-06T06:56:37.861Z,41.07
2018-11-06T06:59:41.154Z,38.13
2018-11-06T07:02:44.346Z,36.80
2018-11-06T07:05:47.713Z,35.97
2018-11-06T07:08:50.837Z,42.80
2018-11-06T07:11:54.409Z,42.60
2018-11-06T07:14:57.425Z,45.00
2018-11-06T07:18:00.593Z,44.43
2018-11-06T07:21:03.722Z,44.53
2018-11-06T07:24:06.846Z,38.50
2018-11-06T07:27:09.902Z,43.07
2018-11-06T07:30:15.118Z,41.67
2018-11-06T07:33:18.338Z,40.40
2018-11-06T07:36:21.465Z,39.13
2018-11-06T07:39:24.523Z,38.87
2018-11-06T07:42:27.957Z,37.13
2018-11-06T07:45:31.002Z,37.87
2018-11-06T07:48:34.158Z,36.23
2018-11-06T07:51:37.206Z,33.90
2018-11-06T07:54:40.430Z,32.33
2018-11-06T07:57:43.593Z,33.87
2018-11-06T08:00:46.867Z,33.43
2018-11-06T08:03:49.983Z,31.23
2018-11-06T08:06:53.114Z,31.13
2018-11-06T08:09:56.170Z,28.92
2018-11-06T08:12:59.297Z,28.73
2018-11-06T08:16:02.355Z,29.00
2018-11-06T08:19:05.774Z,29.37
2018-11-06T08:22:08.833Z,28.90
2018-11-06T08:25:13.151Z,29.48
2018-11-06T08:28:16.467Z,28.43
2018-11-06T08:31:19.855Z,30.10
2018-11-06T08:34:22.750Z,27.55
2018-11-06T08:37:26.114Z,26.07
2018-11-06T08:40:29.179Z,27.65
2018-11-06T08:43:32.238Z,27.40
2018-11-06T08:46:35.366Z,27.32
2018-11-06T08:49:38.425Z,24.80
2018-11-06T08:52:41.814Z,27.35
2018-11-06T08:55:45.129Z,26.73
2018-11-06T08:58:48.210Z,24.50
2018-11-06T09:01:51.542Z,25.52
2018-11-06T09:04:54.608Z,26.00
2018-11-06T09:07:57.730Z,24.60
2018-11-06T09:11:00.773Z,24.75
2018-11-06T09:14:04.270Z,25.92
2018-11-06T09:17:07.461Z,23.83
2018-11-06T09:20:11.888Z,23.07
2018-11-06T09:23:15.112Z,24.30
2018-11-06T09:26:18.269Z,23.20
2018-11-06T09:29:21.291Z,22.85
2018-11-06T09:32:24.622Z,24.70
2018-11-06T09:35:27.678Z,22.90
2018-11-06T09:38:30.902Z,23.10
2018-11-06T09:41:34.072Z,23.50
2018-11-06T09:44:37.339Z,22.35
2018-11-06T09:47:40.360Z,21.62
2018-11-06T09:50:43.512Z,21.73
2018-11-06T09:53:46.545Z,20.25
2018-11-06T09:56:49.973Z,20.00
2018-11-06T09:59:53.137Z,21.07
2018-11-06T10:02:56.394Z,20.90
2018-11-06T10:05:59.436Z,19.90
2018-11-06T10:09:02.789Z,18.90
2018-11-06T10:12:05.813Z,20.10
2018-11-06T10:15:10.957Z,18.62
2018-11-06T10:18:14.142Z,18.17
2018-11-06T10:21:17.506Z,18.67
2018-11-06T10:24:20.537Z,18.60
2018-11-06T10:27:23.669Z,18.07
2018-11-06T10:30:26.843Z,17.40
2018-11-06T10:33:30.012Z,17.95
2018-11-06T10:36:33.214Z,17.57
2018-11-06T10:39:36.346Z,18.25
2018-11-06T10:42:39.406Z,17.52
2018-11-06T10:45:42.722Z,16.97
2018-11-06T10:48:45.789Z,16.77
2018-11-06T10:51:48.986Z,17.50
2018-11-06T10:54:52.390Z,17.57
2018-11-06T10:57:55.577Z,16.62
2018-11-06T11:01:04.200Z,16.00
2018-11-06T11:04:12.950Z,16.67
2018-11-06T11:07:16.229Z,15.80
2018-11-06T11:10:19.462Z,15.85
2018-11-06T11:13:22.518Z,15.53
2018-11-06T11:16:25.745Z,16.48
2018-11-06T11:19:28.944Z,14.68
2018-11-06T11:22:32.037Z,14.90
2018-11-06T11:25:35.146Z,15.68
2018-11-06T11:28:38.262Z,14.35
2018-11-06T11:31:41.323Z,15.25
2018-11-06T11:34:44.410Z,15.80
2018-11-06T11:37:47.548Z,14.78
2018-11-06T11:40:50.838Z,14.85
2018-11-06T11:43:54.162Z,14.87
2018-11-06T11:46:57.286Z,12.58
2018-11-06T11:50:00.342Z,14.03
2018-11-06T11:53:03.474Z,13.08
2018-11-06T11:56:06.529Z,13.30
2018-11-06T11:59:09.661Z,13.83
2018-11-06T12:02:12.749Z,12.63
2018-11-06T12:05:15.969Z,12.70
2018-11-06T12:08:19.143Z,13.15
2018-11-06T12:11:22.234Z,13.15
2018-11-06T12:14:25.290Z,13.00
2018-11-06T12:17:28.612Z,12.53
2018-11-06T12:20:31.678Z,13.25
2018-11-06T12:23:34.919Z,13.25
2018-11-06T12:26:37.969Z,13.20
2018-11-06T12:29:41.418Z,12.82
2018-11-06T12:32:44.734Z,13.28
2018-11-06T12:35:47.914Z,13.00
2018-11-06T12:38:50.954Z,13.72
2018-11-06T12:41:54.094Z,13.40
2018-11-06T12:44:57.301Z,14.38
2018-11-06T12:48:00.438Z,13.70
2018-11-06T12:51:03.580Z,12.37
2018-11-06T12:54:06.626Z,12.82
2018-11-06T12:57:10.057Z,13.90
2018-11-06T13:00:14.798Z,14.38
2018-11-06T13:03:18.010Z,14.65
2018-11-06T13:06:21.146Z,14.75
2018-11-06T13:09:24.274Z,15.55
2018-11-06T13:12:27.334Z,14.85
2018-11-06T13:15:30.769Z,15.75
2018-11-06T13:18:34.234Z,16.10
2018-11-06T13:21:37.353Z,15.55
2018-11-06T13:24:40.422Z,15.72
2018-11-06T13:27:43.749Z,15.83
2018-11-06T13:30:46.860Z,16.42
2018-11-06T13:33:50.146Z,16.23
2018-11-06T13:36:53.401Z,16.40
2018-11-06T13:39:56.545Z,16.67
2018-11-06T13:42:59.668Z,16.50
2018-11-06T13:46:02.710Z,17.10
2018-11-06T13:49:05.877Z,16.12
2018-11-06T13:52:09.042Z,16.50
2018-11-06T13:55:13.391Z,17.32
2018-11-06T13:58:16.526Z,17.07
2018-11-06T14:01:19.574Z,17.20
2018-11-06T14:04:22.833Z,16.87
2018-11-06T14:07:26.073Z,18.70
2018-11-06T14:10:29.197Z,19.48
2018-11-06T14:13:32.357Z,18.73
2018-11-06T14:16:35.894Z,18.50
2018-11-06T14:19:38.954Z,18.42
2018-11-06T14:22:42.185Z,17.20
2018-11-06T14:25:45.342Z,15.88
2018-11-06T14:28:48.774Z,20.10
2018-11-06T14:31:51.878Z,18.30
2018-11-06T14:34:54.955Z,17.77
2018-11-06T14:37:58.227Z,16.67
2018-11-06T14:41:01.469Z,17.25
2018-11-06T14:44:04.620Z,18.15
2018-11-06T14:47:07.746Z,19.27
2018-11-06T14:50:11.519Z,19.65
2018-11-06T14:53:14.646Z,23.52
2018-11-06T14:56:17.706Z,21.82
2018-11-06T14:59:21.138Z,20.55
2018-11-06T15:02:24.193Z,19.65
2018-11-06T15:05:27.364Z,20.43
2018-11-06T15:08:30.677Z,19.07
2018-11-06T15:11:33.962Z,20.20
2018-11-06T15:14:37.286Z,19.00
2018-11-06T15:17:41.582Z,20.27
2018-11-06T15:20:44.744Z,20.90
2018-11-06T15:23:48.134Z,21.70
2018-11-06T15:26:51.103Z,21.80
2018-11-06T15:29:54.215Z,21.02
2018-11-06T15:32:57.277Z,20.75
2018-11-06T15:36:00.582Z,21.50
2018-11-06T15:39:05.174Z,22.25
2018-11-06T15:42:08.503Z,22.87
2018-11-06T15:45:14.657Z,21.45
2018-11-06T15:48:17.994Z,23.80
2018-11-06T15:51:21.054Z,23.35
2018-11-06T15:54:24.235Z,24.47
2018-11-06T15:57:27.234Z,24.47
2018-11-06T16:00:30.478Z,23.60
2018-11-06T16:03:33.564Z,26.90
2018-11-06T16:06:36.671Z,24.25
2018-11-06T16:09:39.917Z,25.68
2018-11-06T16:12:43.763Z,24.67
2018-11-06T16:15:47.010Z,26.25
2018-11-06T16:18:50.353Z,25.30
2018-11-06T16:21:53.416Z,24.77
2018-11-06T16:24:56.535Z,25.05
2018-11-06T16:27:59.701Z,25.40
2018-11-06T16:31:03.134Z,25.65
2018-11-06T16:34:06.194Z,26.00
2018-11-06T16:37:09.438Z,26.73
2018-11-06T16:40:13.194Z,27.62
2018-11-06T16:43:16.430Z,28.67
2018-11-06T16:46:19.493Z,27.30
2018-11-06T16:49:22.617Z,24.32
2018-11-06T16:52:25.673Z,25.68
2018-11-06T16:55:28.801Z,27.10
2018-11-06T16:58:31.958Z,30.08
2018-11-06T17:01:35.090Z,30.48
2018-11-06T17:04:38.146Z,29.32
2018-11-06T17:07:41.686Z,28.65
2018-11-06T17:10:44.734Z,29.50
2018-11-06T17:13:47.875Z,30.30
2018-11-06T17:16:50.925Z,32.00
2018-11-06T17:19:54.054Z,32.40
2018-11-06T17:22:57.098Z,33.88
2018-11-06T17:26:00.474Z,33.18
2018-11-06T17:29:04.158Z,34.40
2018-11-06T17:32:07.345Z,36.03
2018-11-06T17:35:11.906Z,32.60
2018-11-06T17:38:15.002Z,30.70
2018-11-06T17:41:18.330Z,32.17
2018-11-06T17:44:21.454Z,35.95
2018-11-06T17:47:24.613Z,35.78
2018-11-06T17:50:27.784Z,37.25
2018-11-06T17:53:30.798Z,37.17
2018-11-06T17:56:33.930Z,36.83
2018-11-06T17:59:36.991Z,35.95
2018-11-06T18:02:40.626Z,38.05
2018-11-06T18:05:43.885Z,33.00
2018-11-06T18:08:47.018Z,35.70
2018-11-06T18:11:50.101Z,34.85
2018-11-06T18:14:53.329Z,34.33
2018-11-06T18:17:56.558Z,31.82
2018-11-06T18:20:59.494Z,38.87
2018-11-06T18:24:02.650Z,39.65
2018-11-06T18:27:05.813Z,43.25
2018-11-06T18:30:14.409Z,39.20
2018-11-06T18:33:17.602Z,41.28
2018-11-06T18:36:20.750Z,36.98
2018-11-06T18:39:23.887Z,39.50
2018-11-06T18:42:26.931Z,36.23
2018-11-06T18:45:30.070Z,36.55
2018-11-06T18:48:33.130Z,38.70
2018-11-06T18:51:36.254Z,71.92
2018-11-06T18:54:39.350Z,45.20
2018-11-06T18:57:42.710Z,40.73
2018-11-06T19:00:45.841Z,40.33
2018-11-06T19:03:48.898Z,42.20
2018-11-06T19:06:52.230Z,44.58
2018-11-06T19:09:55.378Z,47.67
2018-11-06T19:12:58.501Z,42.20
2018-11-06T19:16:01.674Z,44.13
2018-11-06T19:19:05.011Z,39.20
2018-11-06T19:22:08.066Z,41.90
2018-11-06T19:25:12.054Z,40.95
2018-11-06T19:28:15.173Z,38.88
2018-11-06T19:31:18.412Z,40.70
2018-11-06T19:34:21.566Z,40.00
2018-11-06T19:37:24.798Z,40.25
2018-11-06T19:40:27.974Z,39.45
2018-11-06T19:43:31.078Z,47.08
2018-11-06T19:46:34.139Z,43.80
2018-11-06T19:49:37.607Z,43.83
2018-11-06T19:52:40.919Z,45.83
2018-11-06T19:55:44.073Z,38.98
2018-11-06T19:58:47.133Z,37.40
2018-11-06T20:01:50.961Z,34.15
2018-11-06T20:04:54.119Z,38.73
2018-11-06T20:07:57.258Z,45.83
2018-11-06T20:11:00.303Z,38.85
2018-11-06T20:14:03.546Z,35.68
2018-11-06T20:17:06.604Z,38.98
2018-11-06T20:20:13.047Z,39.90
2018-11-06T20:23:16.170Z,40.73
2018-11-06T20:26:19.502Z,43.63
2018-11-06T20:29:22.762Z,40.33
2018-11-06T20:32:26.090Z,45.13
2018-11-06T20:35:29.292Z,53.15
2018-11-06T20:38:32.385Z,54.60
2018-11-06T20:41:35.442Z,53.37
2018-11-06T20:44:38.672Z,52.48
2018-11-06T20:47:42.447Z,51.95
2018-11-06T20:50:45.573Z,54.90
2018-11-06T20:53:48.731Z,48.20
2018-11-06T20:56:52.351Z,47.70
2018-11-06T20:59:55.487Z,46.73
2018-11-06T21:03:00.920Z,55.30
2018-11-06T21:06:04.104Z,51.35
2018-11-06T21:09:09.174Z,45.78
2018-11-06T21:12:12.307Z,41.40
2018-11-06T21:15:15.540Z,37.45
2018-11-06T21:18:18.606Z,36.88
2018-11-06T21:21:21.930Z,36.55
2018-11-06T21:24:25.090Z,36.17
2018-11-06T21:27:28.420Z,41.33
2018-11-06T21:30:31.579Z,37.28
2018-11-06T21:33:35.028Z,47.07
2018-11-06T21:36:38.170Z,51.80
2018-11-06T21:39:41.302Z,54.25
2018-11-06T21:42:44.874Z,56.55
2018-11-06T21:45:48.204Z,61.87
2018-11-06T21:48:51.254Z,62.17
2018-11-06T21:51:54.500Z,65.00
2018-11-06T21:54:57.694Z,62.70
2018-11-06T21:58:01.089Z,57.73
2018-11-06T22:01:04.455Z,54.03
2018-11-06T22:04:07.618Z,45.45
2018-11-06T22:07:10.646Z,47.93
2018-11-06T22:10:15.094Z,50.10
2018-11-06T22:13:18.142Z,52.05
2018-11-06T22:16:21.366Z,55.57
2018-11-06T22:19:24.437Z,50.50
2018-11-06T22:22:27.596Z,68.20
2018-11-06T22:25:30.634Z,66.97
2018-11-06T22:28:33.958Z,55.57
2018-11-06T22:31:37.358Z,74.83
2018-11-06T22:34:40.350Z,48.63
2018-11-06T22:37:43.615Z,54.30
2018-11-06T22:40:47.145Z,52.78
2018-11-06T22:43:50.314Z,56.40
2018-11-06T22:46:53.345Z,61.73
2018-11-06T22:49:56.586Z,49.77
2018-11-06T22:53:00.342Z,54.10
2018-11-06T22:56:03.502Z,60.38
2018-11-06T22:59:06.833Z,51.30
2018-11-06T23:02:09.885Z,46.17
2018-11-06T23:05:13.529Z,44.58
2018-11-06T23:08:22.054Z,43.33
2018-11-06T23:11:25.346Z,55.03
2018-11-06T23:14:28.506Z,68.73
2018-11-06T23:17:31.810Z,49.20
2018-11-06T23:20:35.039Z,45.50
2018-11-06T23:23:38.126Z,55.20
2018-11-06T23:26:41.289Z,107.72
2018-11-06T23:29:44.717Z,88.47
2018-11-06T23:32:47.778Z,63.68
2018-11-06T23:35:50.920Z,75.47
2018-11-06T23:38:54.153Z,55.73
2018-11-06T23:41:57.302Z,45.63
2018-11-06T23:45:00.354Z,66.47
2018-11-06T23:48:03.686Z,46.15
2018-11-06T23:51:06.845Z,31.62
2018-11-06T23:54:10.080Z,32.63
2018-11-06T23:57:13.226Z,37.43
